This is the latest recevied weather packets stored in our database for station/object K9RJT. If no packets are shown the sender has not sent any weather packets the latest 10 day(s).
| Time | Temp. | Humidity | Pressure | Rain* | Wind** | Luminosity | Snow |
|---|---|---|---|---|---|---|---|
| 1777995580 | 15° C | 58% | 1009.7 hPa | 0 mm | - | 342 W/m² | - |
| 1777995278 | 13.89° C | 60% | 1009.9 hPa | 0 mm | - | 329 W/m² | - |
| 1777994974 | 13.33° C | 61% | 1009.7 hPa | 0 mm | - | 317 W/m² | - |
| 1777994672 | 12.78° C | 63% | 1009.8 hPa | 0 mm | - | 308 W/m² | - |
| 1777994372 | 13.89° C | 61% | 1009.7 hPa | 0 mm | - | 296 W/m² | - |
| 1777994068 | 13.33° C | 62% | 1009.8 hPa | 0 mm | - | 283 W/m² | - |
| 1777993765 | 13.33° C | 61% | 1009.7 hPa | 0 mm | - | 269 W/m² | - |
| 1777993462 | 12.78° C | 61% | 1009.8 hPa | 0 mm | - | 256 W/m² | - |
| 1777993162 | 12.78° C | 62% | 1009.8 hPa | 0 mm | - | 242 W/m² | - |
| 1777992860 | 12.78° C | 62% | 1010 hPa | 0 mm | - | 230 W/m² | - |
| 1777992558 | 12.22° C | 62% | 1009.7 hPa | 0 mm | - | 217 W/m² | - |
| 1777992256 | 12.22° C | 63% | 1009.6 hPa | 0 mm | - | 205 W/m² | - |
| 1777991953 | 11.67° C | 64% | 1009.9 hPa | 0 mm | - | 196 W/m² | - |
| 1777991650 | 11.11° C | 64% | 1009.7 hPa | 0 mm | - | 187 W/m² | - |
| 1777991347 | 11.11° C | 66% | 1009.8 hPa | 0 mm | - | 180 W/m² | - |
| 1777991044 | 10.56° C | 67% | 1009.7 hPa | 0 mm | - | 178 W/m² | - |
| 1777990741 | 10° C | 67% | 1009.6 hPa | 0 mm | - | 173 W/m² | - |
| 1777990439 | 10° C | 67% | 1009.7 hPa | 0 mm | - | 157 W/m² | - |
| 1777989832 | 8.89° C | 71% | 1009.3 hPa | 0 mm | - | 111 W/m² | - |
| 1777989529 | 8.89° C | 71% | 1009.6 hPa | 0 mm | - | 95 W/m² | - |
| 1777989225 | 8.33° C | 73% | 1009.3 hPa | 0 mm | - | 84 W/m² | - |
| 1777988921 | 7.78° C | 74% | 1009.2 hPa | 0 mm | - | 69 W/m² | - |
| 1777988618 | 7.78° C | 74% | 1009.1 hPa | 0 mm | - | 61 W/m² | - |
| 1777988315 | 7.78° C | 73% | 1009.2 hPa | 0 mm | - | 52 W/m² | - |
| 1777988012 | 7.22° C | 75% | 1009.1 hPa | 0 mm | - | 43 W/m² | - |
* Rain latest hour (hover to see other rain measurements)
** Current wind speed in m/s (hover to see current wind gust speed)